Time;durP1;ratioP1;P1;durP2;ratioP2;P2;SDS_P1;SDS_P2;PMS_P1;PMS_P2;Temp;Humidity;BMP_temperature;BMP_pressure;BME280_temperature;BME280_humidity;BME280_pressure;Samples;Min_cycle;Max_cycle;Signal;HPM_P1;HPM_P2
2021/12/29 00:00:57;;;;;;;73.80;45.20;;;;;;;-3.89;100.00;97792.35;102277;1317;75329;-75
2021/12/29 00:03:24;;;;;;;79.60;47.10;;;;;;;-3.83;100.00;97790.98;102445;1316;69281;-74
2021/12/29 00:05:51;;;;;;;80.20;47.80;;;;;;;-3.80;100.00;97792.28;102395;1317;73195;-75
2021/12/29 00:08:17;;;;;;;80.00;48.70;;;;;;;-3.81;100.00;97788.48;102386;1318;61342;-74
2021/12/29 00:10:46;;;;;;;80.60;48.10;;;;;;;-3.81;100.00;97788.16;102373;1316;61387;-74
2021/12/29 00:13:13;;;;;;;77.20;46.40;;;;;;;-3.80;100.00;97785.35;102338;1318;75725;-75
2021/12/29 00:15:40;;;;;;;74.50;44.80;;;;;;;-3.81;100.00;97783.64;102329;1316;70501;-73
2021/12/29 00:18:07;;;;;;;78.60;47.80;;;;;;;-3.83;100.00;97782.49;102330;1310;73559;-75
2021/12/29 00:20:33;;;;;;;73.60;44.30;;;;;;;-3.82;100.00;97777.42;101979;1318;61419;-74
2021/12/29 00:23:03;;;;;;;74.80;45.90;;;;;;;-3.80;100.00;97777.20;102302;1317;61419;-73
2021/12/29 00:25:31;;;;;;;77.00;46.10;;;;;;;-3.75;100.00;97773.92;102398;1310;75417;-73
2021/12/29 00:27:59;;;;;;;79.20;46.00;;;;;;;-3.72;100.00;97772.78;102317;1316;70339;-73
2021/12/29 00:30:27;;;;;;;70.60;45.60;;;;;;;-3.68;100.00;97775.09;102291;1316;73336;-74
2021/12/29 00:32:55;;;;;;;76.10;43.60;;;;;;;-3.67;100.00;97772.46;102339;1316;61361;-73
2021/12/29 00:35:22;;;;;;;75.00;43.90;;;;;;;-3.70;100.00;97772.36;102342;1314;61616;-73
2021/12/29 00:37:48;;;;;;;70.40;43.20;;;;;;;-3.74;100.00;97773.20;102287;1317;75213;-74
2021/12/29 00:40:15;;;;;;;66.60;41.60;;;;;;;-3.77;100.00;97773.45;102281;1316;61534;-73
2021/12/29 00:42:42;;;;;;;69.90;43.40;;;;;;;-3.77;100.00;97771.72;102257;1316;74262;-74
2021/12/29 00:45:09;;;;;;;64.10;39.40;;;;;;;-3.76;100.00;97764.39;102280;1317;61350;-74
2021/12/29 00:47:37;;;;;;;68.50;41.10;;;;;;;-3.76;100.00;97762.85;102330;1316;62292;-74
2021/12/29 00:50:13;;;;;;;69.40;41.70;;;;;;;-3.77;100.00;97760.96;102080;1318;73890;-73
2021/12/29 00:52:41;;;;;;;68.20;41.10;;;;;;;-3.78;100.00;97763.41;102295;1316;68788;-73
2021/12/29 00:55:09;;;;;;;68.90;42.20;;;;;;;-3.80;100.00;97765.21;102322;1313;73556;-73
2021/12/29 00:57:35;;;;;;;70.70;42.90;;;;;;;-3.83;100.00;97761.46;101989;1317;61362;-73
2021/12/29 01:00:08;;;;;;;82.60;43.20;;;;;;;-3.84;100.00;97758.56;102160;1316;206902;-73
2021/12/29 01:02:35;;;;;;;81.40;48.10;;;;;;;-3.88;100.00;97758.17;102054;1316;73385;-73
2021/12/29 01:05:03;;;;;;;81.70;45.30;;;;;;;-3.91;100.00;97755.98;102456;1316;69277;-74
2021/12/29 01:07:30;;;;;;;78.50;45.20;;;;;;;-3.88;100.00;97755.20;101964;1318;73603;-73
2021/12/29 01:09:56;;;;;;;78.40;44.90;;;;;;;-3.83;100.00;97758.20;102423;1316;61361;-73
2021/12/29 01:12:23;;;;;;;72.50;46.20;;;;;;;-3.77;100.00;97757.64;102365;1316;61315;-73
2021/12/29 01:14:54;;;;;;;71.10;44.80;;;;;;;-3.68;100.00;97752.54;102287;1310;76166;-73
2021/12/29 01:17:23;;;;;;;71.90;43.50;;;;;;;-3.59;100.00;97755.73;102287;1316;69272;-73
2021/12/29 01:19:53;;;;;;;72.90;45.20;;;;;;;-3.56;100.00;97755.29;102277;1316;73313;-74
2021/12/29 01:22:24;;;;;;;73.60;43.00;;;;;;;-3.51;100.00;97756.20;102264;1317;61352;-73
2021/12/29 01:24:50;;;;;;;72.20;41.90;;;;;;;-3.50;100.00;97752.52;101910;1314;61308;-73
2021/12/29 01:27:17;;;;;;;75.70;44.40;;;;;;;-3.50;100.00;97753.22;102302;1317;75217;-73
2021/12/29 01:29:46;;;;;;;69.30;43.40;;;;;;;-3.52;100.00;97757.09;102259;1316;69410;-73
2021/12/29 01:32:13;;;;;;;75.60;43.80;;;;;;;-3.53;100.00;97762.85;102245;1316;73777;-73
2021/12/29 01:34:40;;;;;;;75.20;43.90;;;;;;;-3.52;100.00;97759.35;102229;1310;61364;-73
2021/12/29 01:37:06;;;;;;;69.10;40.60;;;;;;;-3.49;100.00;97756.33;102276;1316;61347;-74
2021/12/29 01:39:33;;;;;;;66.00;41.10;;;;;;;-3.45;100.00;97757.05;102342;1316;75302;-73
2021/12/29 01:42:00;;;;;;;69.20;42.40;;;;;;;-3.39;100.00;97758.79;101915;1313;67369;-75
2021/12/29 01:44:28;;;;;;;69.30;42.70;;;;;;;-3.34;100.00;97754.63;102210;1317;73243;-73
2021/12/29 01:46:57;;;;;;;74.50;43.60;;;;;;;-3.32;100.00;97760.80;102056;1317;61295;-72
2021/12/29 01:49:24;;;;;;;69.40;43.00;;;;;;;-3.30;100.00;97758.14;102215;1314;61512;-74
2021/12/29 01:52:02;;;;;;;74.30;46.00;;;;;;;-3.32;100.00;97763.59;102269;1310;76152;-73
2021/12/29 01:54:34;;;;;;;73.70;46.30;;;;;;;-3.33;100.00;97762.73;102279;1316;68885;-73
2021/12/29 01:57:03;;;;;;;66.50;43.00;;;;;;;-3.31;100.00;97762.16;102256;1317;73377;-74
2021/12/29 01:59:30;;;;;;;81.20;53.10;;;;;;;-3.29;100.00;97761.60;102273;1317;61362;-72
2021/12/29 02:01:56;;;;;;;80.50;51.10;;;;;;;-3.28;100.00;97762.09;101920;1313;61222;-73
2021/12/29 02:04:23;;;;;;;66.60;38.50;;;;;;;-3.24;100.00;97759.52;102230;1310;74672;-73
2021/12/29 02:06:50;;;;;;;68.20;39.20;;;;;;;-3.20;100.00;97760.09;102267;1317;70713;-73
2021/12/29 02:09:17;;;;;;;72.90;45.60;;;;;;;-3.18;100.00;97759.86;102255;1316;74652;-74
2021/12/29 02:11:44;;;;;;;64.10;40.60;;;;;;;-3.17;100.00;97756.34;102283;1314;61664;-74
2021/12/29 02:14:11;;;;;;;68.90;40.50;;;;;;;-3.17;100.00;97754.06;102288;1316;61587;-74
2021/12/29 02:16:38;;;;;;;67.20;39.00;;;;;;;-3.18;100.00;97753.24;102341;1316;73733;-73
2021/12/29 02:19:08;;;;;;;72.30;41.70;;;;;;;-3.19;100.00;97753.98;102286;1316;69281;-74
2021/12/29 02:21:37;;;;;;;67.60;40.70;;;;;;;-3.19;100.00;97756.21;102377;1313;74104;-74
2021/12/29 02:26:38;;;;;;;63.80;37.70;;;;;;;-3.13;100.00;97755.54;102028;1313;61370;-74
2021/12/29 02:29:12;;;;;;;66.70;39.90;;;;;;;-3.10;100.00;97762.90;102098;1313;76539;-75
2021/12/29 02:31:40;;;;;;;64.70;40.80;;;;;;;-3.04;100.00;97762.54;102545;1316;69741;-76
2021/12/29 02:34:09;;;;;;;69.20;42.70;;;;;;;-3.02;100.00;97760.56;102420;1310;74439;-75
2021/12/29 02:36:43;;;;;;;66.90;41.70;;;;;;;-3.00;100.00;97755.45;102458;1310;61409;-73
2021/12/29 02:39:13;;;;;;;62.50;38.60;;;;;;;-3.00;100.00;97760.83;102248;1314;61447;-73
2021/12/29 02:41:46;;;;;;;67.20;39.20;;;;;;;-3.01;100.00;97762.59;102253;1310;75836;-73
2021/12/29 02:44:18;;;;;;;63.80;38.80;;;;;;;-3.01;100.00;97761.06;102328;1316;69482;-73
2021/12/29 02:46:44;;;;;;;60.90;36.80;;;;;;;-3.00;100.00;97765.19;102313;1317;74281;-75
2021/12/29 02:49:12;;;;;;;66.30;37.70;;;;;;;-2.98;100.00;97763.39;102337;1317;61407;-74
2021/12/29 02:51:39;;;;;;;63.50;38.30;;;;;;;-2.97;100.00;97757.25;102438;1316;61482;-74
2021/12/29 02:54:06;;;;;;;64.10;38.70;;;;;;;-2.96;100.00;97759.66;102543;1310;75988;-74
2021/12/29 02:56:33;;;;;;;68.30;40.00;;;;;;;-2.96;100.00;97759.84;102497;1310;69501;-74
2021/12/29 02:59:00;;;;;;;64.20;38.30;;;;;;;-2.96;100.00;97757.23;102514;1316;74329;-74
2021/12/29 03:01:27;;;;;;;64.10;38.80;;;;;;;-3.00;100.00;97754.58;102531;1314;61432;-74
2021/12/29 03:03:58;;;;;;;74.40;45.00;;;;;;;-3.02;100.00;97757.08;102800;1310;61180;-74
2021/12/29 03:06:26;;;;;;;124.20;72.70;;;;;;;-3.04;100.00;97758.55;102534;1316;75201;-75
2021/12/29 03:08:52;;;;;;;186.80;98.30;;;;;;;-3.03;100.00;97761.65;102787;1317;70456;-74
2021/12/29 03:11:19;;;;;;;106.80;60.40;;;;;;;-3.04;100.00;97751.76;103257;1310;74252;-74
2021/12/29 03:13:46;;;;;;;76.40;45.30;;;;;;;-3.00;100.00;97751.30;103453;1314;61533;-74
2021/12/29 03:16:13;;;;;;;64.70;38.10;;;;;;;-2.96;100.00;97748.72;103312;1316;61334;-74
2021/12/29 03:18:41;;;;;;;59.60;39.10;;;;;;;-2.94;100.00;97748.12;103124;1314;74164;-74
2021/12/29 03:21:10;;;;;;;66.50;41.00;;;;;;;-2.91;100.00;97746.11;103057;1311;69596;-75
2021/12/29 03:23:37;;;;;;;63.30;38.70;;;;;;;-2.89;100.00;97748.14;102432;1310;74358;-74
2021/12/29 03:26:06;;;;;;;66.50;41.90;;;;;;;-2.88;100.00;97751.92;102485;1316;61360;-74
2021/12/29 03:28:34;;;;;;;69.30;42.30;;;;;;;-2.88;100.00;97748.09;102445;1316;61295;-74
2021/12/29 03:31:01;;;;;;;73.10;42.40;;;;;;;-2.89;100.00;97750.06;102411;1316;73292;-72
2021/12/29 03:33:31;;;;;;;66.40;42.00;;;;;;;-2.91;100.00;97753.44;102505;1310;68873;-73
2021/12/29 03:36:02;;;;;;;61.20;40.10;;;;;;;-2.90;100.00;97756.52;101967;1316;73452;-77
2021/12/29 03:38:32;;;;;;;62.30;39.60;;;;;;;-2.85;100.00;97753.06;102410;1311;61328;-74
2021/12/29 03:41:00;;;;;;;64.10;41.20;;;;;;;-2.76;100.00;97757.98;102412;1316;61327;-74
2021/12/29 03:43:29;;;;;;;69.00;43.30;;;;;;;-2.69;100.00;97754.25;102332;1317;75390;-75
2021/12/29 03:45:56;;;;;;;63.40;40.60;;;;;;;-2.66;100.00;97756.77;102251;1310;69470;-74
2021/12/29 03:48:26;;;;;;;69.00;43.00;;;;;;;-2.66;100.00;97760.23;102368;1310;73179;-75
2021/12/29 03:50:58;;;;;;;67.60;41.20;;;;;;;-2.67;100.00;97759.37;102264;1316;61238;-75
2021/12/29 03:53:24;;;;;;;65.80;40.40;;;;;;;-2.67;100.00;97757.65;102279;1310;61307;-74
2021/12/29 03:55:52;;;;;;;64.70;42.80;;;;;;;-2.68;100.00;97758.76;102215;1313;76352;-73
2021/12/29 03:58:21;;;;;;;60.30;40.20;;;;;;;-2.69;100.00;97759.45;102363;1311;69510;-73
2021/12/29 04:00:50;;;;;;;61.00;38.90;;;;;;;-2.68;100.00;97761.34;102407;1316;74558;-74
2021/12/29 04:03:17;;;;;;;61.20;41.00;;;;;;;-2.65;100.00;97761.77;101962;1317;61448;-74
2021/12/29 04:05:44;;;;;;;63.70;39.70;;;;;;;-2.61;100.00;97767.73;102247;1313;62142;-75
2021/12/29 04:08:11;;;;;;;67.10;41.10;;;;;;;-2.61;100.00;97767.02;102297;1310;75316;-73
2021/12/29 04:10:38;;;;;;;73.10;43.60;;;;;;;-2.63;100.00;97774.91;102452;1310;69361;-74
2021/12/29 04:13:05;;;;;;;71.40;42.80;;;;;;;-2.64;100.00;97772.34;102323;1310;73822;-73
2021/12/29 04:15:33;;;;;;;73.40;44.70;;;;;;;-2.66;100.00;97775.88;102260;1316;61396;-73
2021/12/29 04:18:03;;;;;;;66.40;42.20;;;;;;;-2.68;100.00;97770.39;102330;1314;62519;-74
2021/12/29 04:23:19;;;;;;;57.70;35.10;;;;;;;-2.79;100.00;97785.36;102266;1310;68842;-75
2021/12/29 04:25:49;;;;;;;62.50;38.50;;;;;;;-2.81;100.00;97786.48;102264;1310;74387;-74
2021/12/29 04:28:20;;;;;;;68.40;42.40;;;;;;;-2.79;100.00;97781.87;102388;1316;61316;-75
2021/12/29 04:30:50;;;;;;;67.30;42.60;;;;;;;-2.76;100.00;97778.11;102385;1310;61282;-74
2021/12/29 04:33:17;;;;;;;;;;;;;;;-2.74;100.00;97773.73;102319;1310;73095;-74
2021/12/29 04:35:45;;;;;;;68.60;41.70;;;;;;;-2.76;100.00;97770.50;102293;1311;70301;-74
2021/12/29 04:38:12;;;;;;;74.00;44.30;;;;;;;-2.79;100.00;97773.01;102269;1314;73209;-76
2021/12/29 04:40:38;;;;;;;70.20;45.00;;;;;;;-2.81;100.00;97775.16;102217;1316;61396;-75
2021/12/29 04:43:05;;;;;;;68.50;42.90;;;;;;;-2.81;100.00;97773.45;102240;1310;62160;-75
2021/12/29 04:45:32;;;;;;;63.00;40.60;;;;;;;-2.79;100.00;97770.59;102328;1317;73278;-75
2021/12/29 04:48:00;;;;;;;62.90;41.90;;;;;;;-2.80;100.00;97775.98;102260;1316;69448;-75
2021/12/29 04:50:30;;;;;;;59.80;39.80;;;;;;;-2.79;100.00;97779.45;102271;1310;73431;-75
2021/12/29 04:53:00;;;;;;;63.40;41.00;;;;;;;-2.77;100.00;97778.52;102283;1318;61521;-74
2021/12/29 04:55:28;;;;;;;;;;;;;;;-2.76;100.00;97780.23;101620;1314;1002453;-73
2021/12/29 04:57:55;;;;;;;67.10;40.40;;;;;;;-2.78;100.00;97779.58;102382;1310;76383;-74
2021/12/29 05:00:25;;;;;;;71.70;42.30;;;;;;;-2.81;100.00;97780.89;102159;1311;69376;-73
2021/12/29 05:02:53;;;;;;;63.00;41.80;;;;;;;-2.82;100.00;97785.27;102994;1303;72062;-74
2021/12/29 05:05:27;;;;;;;64.60;40.40;;;;;;;-2.80;100.00;97784.70;103322;1313;61304;-74
2021/12/29 05:10:39;;;;;;;66.60;41.50;;;;;;;-2.71;100.00;97790.63;102356;1313;75460;-73
2021/12/29 05:13:06;;;;;;;63.30;41.00;;;;;;;-2.66;100.00;97790.14;102364;1313;61338;-74
2021/12/29 05:15:32;;;;;;;64.40;41.30;;;;;;;-2.61;100.00;97789.99;102220;1317;73452;-74
2021/12/29 05:18:00;;;;;;;65.30;41.20;;;;;;;-2.60;100.00;97790.83;102345;1316;61322;-74
2021/12/29 05:20:27;;;;;;;67.60;44.40;;;;;;;-2.62;100.00;97794.02;102320;1317;61354;-74
2021/12/29 05:22:56;;;;;;;70.80;42.10;;;;;;;-2.67;100.00;97796.76;102254;1311;75257;-77
2021/12/29 05:25:23;;;;;;;66.80;43.50;;;;;;;-2.68;100.00;97792.48;102312;1313;70317;-73
2021/12/29 05:27:50;;;;;;;63.20;39.60;;;;;;;-2.67;100.00;97801.45;102287;1310;73208;-74
2021/12/29 05:30:18;;;;;;;63.70;41.00;;;;;;;-2.65;100.00;97800.54;102226;1310;61345;-74
2021/12/29 05:32:45;;;;;;;66.60;44.20;;;;;;;-2.62;100.00;97803.24;102301;1316;61339;-74
2021/12/29 05:35:13;;;;;;;67.50;44.30;;;;;;;-2.59;100.00;97804.17;102288;1310;75152;-74
2021/12/29 05:37:40;;;;;;;66.10;42.50;;;;;;;-2.57;100.00;97807.73;102294;1314;69519;-74
2021/12/29 05:40:08;;;;;;;68.70;43.60;;;;;;;-2.57;100.00;97810.02;101896;1316;73180;-73
2021/12/29 05:42:36;;;;;;;120.20;65.70;;;;;;;-2.59;100.00;97811.48;102288;1316;61328;-74
2021/12/29 05:45:09;;;;;;;79.80;47.30;;;;;;;-2.62;100.00;97814.36;101932;1311;61434;-74
2021/12/29 05:47:36;;;;;;;73.60;46.10;;;;;;;-2.62;100.00;97819.56;102352;1310;76678;-74
2021/12/29 05:50:05;;;;;;;68.20;42.50;;;;;;;-2.63;100.00;97825.86;102287;1310;69588;-74
2021/12/29 05:52:32;;;;;;;71.40;46.20;;;;;;;-2.61;100.00;97825.79;102315;1314;73737;-74
2021/12/29 05:54:58;;;;;;;79.30;52.70;;;;;;;-2.59;100.00;97831.98;102143;1313;61393;-75
2021/12/29 05:57:25;;;;;;;74.00;45.90;;;;;;;-2.54;100.00;97832.88;102260;1310;62165;-74
2021/12/29 05:59:52;;;;;;;77.30;48.20;;;;;;;-2.49;100.00;97832.88;102316;1310;75552;-74
2021/12/29 06:02:18;;;;;;;77.60;51.80;;;;;;;-2.47;100.00;97836.63;102023;1319;61432;-74
2021/12/29 06:04:45;;;;;;;75.90;48.50;;;;;;;-2.46;100.00;97840.42;102348;1310;73546;-73
2021/12/29 06:07:13;;;;;;;76.80;45.50;;;;;;;-2.47;100.00;97840.27;102395;1316;61367;-74
2021/12/29 06:09:41;;;;;;;77.90;47.40;;;;;;;-2.48;100.00;97842.77;102390;1317;61341;-73
2021/12/29 06:12:08;;;;;;;74.10;46.90;;;;;;;-2.49;100.00;97837.56;102071;1317;75481;-75
2021/12/29 06:14:34;;;;;;;72.10;47.90;;;;;;;-2.49;100.00;97838.61;102213;1313;69479;-74
2021/12/29 06:17:01;;;;;;;83.60;50.80;;;;;;;-2.48;100.00;97843.44;102251;1312;74611;-75
2021/12/29 06:19:30;;;;;;;85.20;53.80;;;;;;;-2.47;100.00;97843.25;102256;1310;61285;-73
2021/12/29 06:21:57;;;;;;;85.10;53.50;;;;;;;-2.49;100.00;97847.28;102284;1316;61407;-73
2021/12/29 06:24:24;;;;;;;87.30;52.70;;;;;;;-2.50;100.00;97857.60;102276;1310;74605;-74
2021/12/29 06:26:50;;;;;;;83.50;50.90;;;;;;;-2.53;100.00;97859.44;102246;1313;70577;-75
2021/12/29 06:29:17;;;;;;;74.90;46.10;;;;;;;-2.57;100.00;97861.32;102301;1311;74286;-75
2021/12/29 06:31:45;;;;;;;78.70;48.00;;;;;;;-2.62;100.00;97860.27;102368;1310;61457;-70
2021/12/29 06:34:12;;;;;;;71.80;47.20;;;;;;;-2.62;100.00;97864.10;102641;1310;61318;-80
2021/12/29 06:36:40;;;;;;;76.20;48.20;;;;;;;-2.61;100.00;97868.39;102429;1310;74600;-79
2021/12/29 06:39:07;;;;;;;80.10;51.20;;;;;;;-2.58;100.00;97872.48;102458;1310;68395;-81
2021/12/29 06:41:33;;;;;;;88.90;53.60;;;;;;;-2.55;100.00;97881.59;102761;1310;73920;-79
2021/12/29 06:44:00;;;;;;;82.80;53.10;;;;;;;-2.55;100.00;97887.14;102438;1313;60432;-79
2021/12/29 06:46:27;;;;;;;88.80;53.80;;;;;;;-2.57;100.00;97881.13;102883;1310;61331;-78
2021/12/29 06:48:53;;;;;;;93.50;52.00;;;;;;;-2.61;100.00;97880.20;102598;1310;74678;-84
2021/12/29 06:51:20;;;;;;;85.70;54.20;;;;;;;-2.63;100.00;97880.45;102693;1310;69105;-79
2021/12/29 06:53:47;;;;;;;84.60;51.90;;;;;;;-2.63;100.00;97886.38;102677;1313;61292;-77
2021/12/29 06:56:14;;;;;;;77.50;50.90;;;;;;;-2.61;100.00;97889.44;102216;1314;61326;-71
2021/12/29 06:58:40;;;;;;;81.40;51.20;;;;;;;-2.57;100.00;97885.98;102308;1316;61230;-74
2021/12/29 07:01:07;;;;;;;80.70;52.80;;;;;;;-2.55;100.00;97890.80;102507;1314;75408;-80
2021/12/29 07:03:33;;;;;;;78.70;48.60;;;;;;;-2.51;100.00;97890.52;102898;1314;69788;-79
2021/12/29 07:06:00;;;;;;;86.10;54.20;;;;;;;-2.52;100.00;97892.61;102882;1314;73810;-80
2021/12/29 07:08:27;;;;;;;80.60;52.60;;;;;;;-2.54;100.00;97897.18;102419;1316;61441;-78
2021/12/29 07:10:53;;;;;;;81.20;51.70;;;;;;;-2.53;100.00;97905.70;102419;1316;61184;-78
2021/12/29 07:13:20;;;;;;;69.30;45.70;;;;;;;-2.54;100.00;97905.02;102796;1313;75709;-78
2021/12/29 07:15:47;;;;;;;75.20;47.60;;;;;;;-2.53;100.00;97906.55;102824;1313;69874;-80
2021/12/29 07:18:14;;;;;;;71.90;46.00;;;;;;;-2.52;100.00;97911.39;102939;1313;74155;-78
2021/12/29 07:20:42;;;;;;;77.40;51.00;;;;;;;-2.51;100.00;97914.14;102523;1314;61317;-77
2021/12/29 07:23:10;;;;;;;78.40;49.40;;;;;;;-2.51;100.00;97919.16;102589;1317;61456;-78
2021/12/29 07:25:37;;;;;;;77.40;48.10;;;;;;;-2.51;100.00;97921.09;102342;1313;76242;-77
2021/12/29 07:28:04;;;;;;;75.00;48.20;;;;;;;-2.52;100.00;97920.96;102077;1316;69440;-77
2021/12/29 07:30:31;;;;;;;81.50;47.30;;;;;;;-2.52;100.00;97926.70;102400;1313;73281;-78
2021/12/29 07:32:57;;;;;;;74.50;49.00;;;;;;;-2.51;100.00;97928.05;102005;1316;61418;-77
2021/12/29 07:35:24;;;;;;;104.70;68.00;;;;;;;-2.48;100.00;97923.42;102210;1313;61617;-76
2021/12/29 07:37:50;;;;;;;95.60;59.70;;;;;;;-2.39;100.00;97924.23;102293;1313;75288;-76
2021/12/29 07:40:17;;;;;;;92.30;54.50;;;;;;;-2.35;100.00;97929.98;102348;1314;70580;-78
2021/12/29 07:42:44;;;;;;;83.70;52.00;;;;;;;-2.32;100.00;97938.58;102424;1317;74394;-76
2021/12/29 07:45:11;;;;;;;80.20;51.40;;;;;;;-2.31;100.00;97941.50;102427;1313;61295;-76
2021/12/29 07:47:44;;;;;;;88.30;56.30;;;;;;;-2.29;100.00;97939.17;101675;1313;1003776;-76
2021/12/29 07:50:12;;;;;;;94.90;62.30;;;;;;;-2.24;100.00;97945.61;102152;1316;74668;-76
2021/12/29 07:52:39;;;;;;;88.40;59.10;;;;;;;-2.20;100.00;97947.06;102241;1317;68837;-75
2021/12/29 07:55:06;;;;;;;82.80;54.00;;;;;;;-2.15;100.00;97942.06;102351;1314;74242;-73
2021/12/29 07:57:32;;;;;;;79.50;53.10;;;;;;;-2.11;100.00;97942.09;102007;1313;61248;-73
2021/12/29 07:59:59;;;;;;;85.60;56.10;;;;;;;-2.09;100.00;97939.73;102383;1310;61295;-74
2021/12/29 08:02:27;;;;;;;87.50;55.10;;;;;;;-2.05;100.00;97940.13;102402;1310;61415;-73
2021/12/29 08:04:55;;;;;;;87.80;58.20;;;;;;;-2.02;100.00;97940.05;102295;1310;70622;-73
2021/12/29 08:07:22;;;;;;;85.60;56.50;;;;;;;-1.98;100.00;97937.45;102083;1310;74612;-74
2021/12/29 08:09:48;;;;;;;92.80;58.60;;;;;;;-1.93;100.00;97943.05;102411;1311;61285;-73
2021/12/29 08:12:15;;;;;;;83.90;55.60;;;;;;;-1.88;100.00;97943.39;102410;1310;61215;-74
2021/12/29 08:14:41;;;;;;;88.80;56.60;;;;;;;-1.85;100.00;97941.39;102413;1310;61327;-74
2021/12/29 08:17:08;;;;;;;72.00;49.40;;;;;;;-1.80;100.00;97941.55;102402;1314;69523;-74
2021/12/29 08:19:35;;;;;;;72.50;48.60;;;;;;;-1.77;100.00;97943.89;102374;1310;73416;-72
2021/12/29 08:22:01;;;;;;;71.50;49.30;;;;;;;-1.73;100.00;97944.30;102479;1311;61337;-73
2021/12/29 08:24:28;;;;;;;76.20;50.50;;;;;;;-1.68;100.00;97953.70;102346;1310;62038;-74
2021/12/29 08:26:55;;;;;;;76.80;50.20;;;;;;;-1.64;100.00;97955.65;102453;1310;61249;-73
2021/12/29 08:29:21;;;;;;;75.80;50.40;;;;;;;-1.61;100.00;97955.70;101241;1315;1015723;-72
2021/12/29 08:31:48;;;;;;;77.20;50.40;;;;;;;-1.62;100.00;97956.61;102383;1310;71092;-73
2021/12/29 08:34:15;;;;;;;74.70;49.70;;;;;;;-1.58;100.00;97958.73;102266;1317;61405;-73
2021/12/29 08:36:42;;;;;;;76.40;53.00;;;;;;;-1.51;100.00;97959.55;102468;1310;61295;-73
2021/12/29 08:39:09;;;;;;;76.20;52.00;;;;;;;-1.40;100.00;97961.41;102077;1316;73557;-74
2021/12/29 08:41:36;;;;;;;71.70;47.20;;;;;;;-1.25;100.00;97968.20;102387;1310;69290;-74
2021/12/29 08:44:03;;;;;;;72.80;48.60;;;;;;;-1.18;100.00;97965.67;102446;1310;61403;-73
2021/12/29 08:46:31;;;;;;;74.90;52.20;;;;;;;-1.10;100.00;97969.24;102519;1310;61321;-74
2021/12/29 08:48:58;;;;;;;434.40;189.60;;;;;;;-1.02;100.00;97970.84;102422;1310;61295;-73
2021/12/29 08:51:24;;;;;;;416.70;232.90;;;;;;;-0.94;100.00;97966.92;102423;1314;75417;-73
2021/12/29 08:53:52;;;;;;;106.70;69.00;;;;;;;-0.85;100.00;97968.67;102313;1310;70376;-74
2021/12/29 08:56:19;;;;;;;155.50;91.30;;;;;;;-0.78;100.00;97977.64;102416;1310;73360;-73
2021/12/29 08:58:46;;;;;;;76.90;51.90;;;;;;;-0.67;100.00;97977.89;102288;1310;61320;-73
2021/12/29 09:01:13;;;;;;;88.90;57.00;;;;;;;-0.55;100.00;97983.75;102246;1311;115349;-73
2021/12/29 09:03:42;;;;;;;86.10;56.80;;;;;;;-0.45;100.00;97985.28;102388;1314;76183;-73
2021/12/29 09:06:09;;;;;;;79.60;54.00;;;;;;;-0.36;100.00;97981.11;102390;1316;70461;-72
2021/12/29 09:08:36;;;;;;;82.70;56.30;;;;;;;-0.25;100.00;97980.11;102384;1310;73139;-72
2021/12/29 09:11:03;;;;;;;78.00;54.90;;;;;;;-0.11;100.00;97976.95;102375;1310;61332;-73
2021/12/29 09:13:30;;;;;;;81.10;53.50;;;;;;;-0.00;100.00;97978.27;101981;1313;61572;-73
2021/12/29 09:15:57;;;;;;;92.80;61.60;;;;;;;0.02;100.00;97975.02;101966;1315;75260;-73
2021/12/29 09:18:27;;;;;;;77.40;50.70;;;;;;;0.04;100.00;97976.70;102424;1310;69541;-73
2021/12/29 09:20:55;;;;;;;66.80;48.10;;;;;;;0.09;100.00;97974.95;102269;1316;74337;-73
2021/12/29 09:23:22;;;;;;;126.40;65.30;;;;;;;0.09;100.00;97980.33;102419;1313;62669;-73
2021/12/29 09:25:49;;;;;;;87.90;57.10;;;;;;;0.10;100.00;97983.60;102298;1310;61212;-73
2021/12/29 09:28:18;;;;;;;73.80;52.10;;;;;;;0.14;100.00;97984.98;102381;1310;75393;-72
2021/12/29 09:30:47;;;;;;;76.70;52.10;;;;;;;0.29;100.00;97989.29;102453;1310;69280;-73
2021/12/29 09:33:16;;;;;;;81.30;53.90;;;;;;;0.40;100.00;97985.14;102401;1310;72427;-72
2021/12/29 09:35:46;;;;;;;73.20;52.10;;;;;;;0.49;100.00;97984.95;101942;1317;61446;-72
2021/12/29 09:38:15;;;;;;;74.20;51.20;;;;;;;0.57;100.00;97986.52;102393;1310;61285;-72
2021/12/29 09:40:42;;;;;;;75.40;54.10;;;;;;;0.58;100.00;97993.30;102447;1313;74673;-72
2021/12/29 09:43:09;;;;;;;76.10;52.70;;;;;;;0.61;100.00;97987.41;102428;1310;69556;-72
2021/12/29 09:45:38;;;;;;;68.30;49.60;;;;;;;0.67;100.00;97986.61;102462;1317;73522;-72
2021/12/29 09:48:05;;;;;;;69.80;52.10;;;;;;;0.77;100.00;97984.23;102451;1311;61390;-73
2021/12/29 09:50:32;;;;;;;74.40;53.10;;;;;;;0.89;100.00;97983.91;102446;1311;62401;-74
2021/12/29 09:52:59;;;;;;;77.20;54.60;;;;;;;0.97;100.00;97974.44;102432;1310;75203;-74
2021/12/29 09:55:26;;;;;;;81.20;55.50;;;;;;;1.04;99.96;97978.35;102484;1311;68070;-75
2021/12/29 09:57:57;;;;;;;86.60;59.60;;;;;;;1.08;99.84;97975.36;102498;1310;74570;-76
2021/12/29 10:00:31;;;;;;;91.40;60.30;;;;;;;1.13;99.83;97977.27;102666;1311;61434;-80
2021/12/29 10:03:00;;;;;;;89.00;63.30;;;;;;;1.21;99.73;97978.66;102967;1311;61898;-83
2021/12/29 10:05:28;;;;;;;87.30;63.60;;;;;;;1.27;99.60;97978.39;102784;1311;75230;-81
2021/12/29 10:08:25;;;;;;;83.20;59.80;;;;;;;1.29;99.46;97982.48;102583;1314;70324;-73
2021/12/29 10:10:55;;;;;;;79.80;56.00;;;;;;;1.34;99.42;97983.45;102430;1310;74244;-73
2021/12/29 10:13:21;;;;;;;84.10;60.40;;;;;;;1.44;99.28;97980.20;101982;1319;61406;-71
2021/12/29 10:15:59;;;;;;;91.40;61.80;;;;;;;1.54;99.17;97981.64;102471;1310;61308;-72
2021/12/29 10:18:29;;;;;;;82.10;58.40;;;;;;;1.65;99.00;97980.46;102437;1310;76358;-72
2021/12/29 10:21:06;;;;;;;90.80;61.20;;;;;;;1.77;98.96;97983.75;102628;1310;69458;-72
2021/12/29 10:23:35;;;;;;;95.30;68.20;;;;;;;1.90;98.84;97982.74;102250;1316;73445;-73
2021/12/29 10:26:09;;;;;;;88.10;63.60;;;;;;;1.99;98.55;97979.52;102709;1310;61386;-72
2021/12/29 10:28:39;;;;;;;82.50;61.70;;;;;;;2.06;98.32;97987.60;102538;1310;61167;-72
2021/12/29 10:31:13;;;;;;;87.20;62.20;;;;;;;2.11;97.99;97987.02;102859;1310;75682;-72
2021/12/29 10:33:45;;;;;;;84.70;59.50;;;;;;;2.12;97.88;97988.00;102923;1310;67369;-72
2021/12/29 10:36:14;;;;;;;85.20;59.10;;;;;;;2.15;97.77;97988.05;103013;1310;74642;-71
2021/12/29 10:38:43;;;;;;;78.50;58.20;;;;;;;2.23;97.92;97987.66;103851;1310;61218;-80
2021/12/29 10:41:09;;;;;;;82.30;62.20;;;;;;;2.27;97.61;97985.34;105151;1318;59454;-79
2021/12/29 10:43:38;;;;;;;84.40;60.10;;;;;;;2.32;97.56;97987.87;105842;1311;75309;-78
2021/12/29 10:46:06;;;;;;;85.80;63.60;;;;;;;2.38;97.53;97981.97;105358;1310;69691;-80
2021/12/29 10:48:33;;;;;;;93.60;66.20;;;;;;;2.45;97.56;97983.21;105275;1310;73301;-80
2021/12/29 10:51:09;;;;;;;94.50;66.20;;;;;;;2.52;97.39;97986.34;104968;1310;61199;-82
2021/12/29 10:53:38;;;;;;;83.00;60.20;;;;;;;2.56;97.30;97984.25;103077;1310;61477;-82
2021/12/29 10:56:06;;;;;;;91.00;65.90;;;;;;;2.57;97.15;97987.85;103053;1310;76295;-81
2021/12/29 10:58:35;;;;;;;87.00;62.00;;;;;;;2.60;97.00;97985.06;102604;1310;70228;-81
2021/12/29 11:01:10;;;;;;;82.40;61.20;;;;;;;2.65;96.74;97982.19;102602;1313;73258;-80
2021/12/29 11:03:58;;;;;;;81.70;59.70;;;;;;;2.73;96.64;97975.12;102959;1310;61238;-82
2021/12/29 11:06:26;;;;;;;82.90;61.80;;;;;;;2.82;96.56;97975.86;102600;1318;61347;-80
2021/12/29 11:08:55;;;;;;;91.10;66.40;;;;;;;2.92;96.57;97974.86;103094;1310;76433;-81
2021/12/29 11:11:31;;;;;;;99.80;70.10;;;;;;;3.00;96.37;97973.36;103116;1310;70153;-82
2021/12/29 11:14:21;;;;;;;88.40;67.90;;;;;;;3.00;96.08;97968.45;103024;1311;73787;-83
2021/12/29 11:16:59;;;;;;;93.90;71.40;;;;;;;3.05;96.15;97972.23;102967;1314;61338;-73